Time;durP1;ratioP1;P1;durP2;ratioP2;P2;SDS_P1;SDS_P2;PMS_P1;PMS_P2;Temp;Humidity;BMP_temperature;BMP_pressure;BME280_temperature;BME280_humidity;BME280_pressure;Samples;Min_cycle;Max_cycle;Signal;HPM_P1;HPM_P2
2022/08/15 00:01:33;;;;;;;35.03;22.77;;;;;;;20.10;98.38;99697.33;1631365;88;25562;-71
2022/08/15 00:04:00;;;;;;;31.75;21.95;;;;;;;20.11;98.43;99701.66;1631353;87;25645;-71
2022/08/15 00:06:32;;;;;;;28.75;22.80;;;;;;;20.10;98.48;99700.67;1631358;88;25456;-71
2022/08/15 00:09:03;;;;;;;30.02;22.37;;;;;;;20.09;98.38;99699.89;1630555;88;28140;-70
2022/08/15 00:11:38;;;;;;;29.27;21.93;;;;;;;20.08;98.40;99700.28;1631289;88;25895;-70
2022/08/15 00:14:10;;;;;;;26.70;22.65;;;;;;;20.09;98.42;99704.58;1631324;88;25567;-71
2022/08/15 00:16:41;;;;;;;29.48;23.22;;;;;;;20.08;98.48;99697.53;1630457;88;26729;-72
2022/08/15 00:19:12;;;;;;;30.70;23.50;;;;;;;20.07;98.49;99698.70;1631377;88;25659;-71
2022/08/15 00:21:44;;;;;;;28.17;22.55;;;;;;;20.07;98.67;99693.98;1631248;88;27929;-71
2022/08/15 00:24:16;;;;;;;30.68;22.80;;;;;;;20.05;98.68;99701.83;1631272;88;25719;-71
2022/08/15 00:26:44;;;;;;;31.82;24.63;;;;;;;20.05;98.72;99696.34;1631352;88;25459;-69
2022/08/15 00:29:12;;;;;;;28.67;23.05;;;;;;;20.06;98.76;99697.14;1631268;88;25692;-70
2022/08/15 00:31:40;;;;;;;26.42;22.40;;;;;;;20.06;98.75;99698.52;1631368;88;25439;-70
2022/08/15 00:34:06;;;;;;;31.37;23.60;;;;;;;20.05;98.89;99706.54;1631324;88;28069;-70
2022/08/15 00:36:32;;;;;;;27.98;23.10;;;;;;;20.05;98.83;99708.69;1631251;88;25741;-70
2022/08/15 00:39:00;;;;;;;28.92;22.82;;;;;;;20.04;98.94;99712.63;1631358;88;25695;-70
2022/08/15 00:41:41;;;;;;;29.37;23.50;;;;;;;20.04;98.95;99711.25;1631317;88;26405;-70
2022/08/15 00:44:19;;;;;;;32.05;23.00;;;;;;;20.04;98.94;99716.74;1631359;88;25478;-70
2022/08/15 00:46:50;;;;;;;31.57;23.52;;;;;;;20.04;99.09;99710.45;1631387;88;27410;-70
2022/08/15 00:49:19;;;;;;;30.15;23.32;;;;;;;20.03;98.98;99704.78;1633464;87;25520;-69
2022/08/15 00:52:03;;;;;;;26.17;21.75;;;;;;;20.02;99.09;99708.09;1633845;87;25684;-70
2022/08/15 00:54:47;;;;;;;28.52;23.80;;;;;;;20.02;99.19;99708.69;1633825;87;26419;-70
2022/08/15 00:57:23;;;;;;;27.50;22.77;;;;;;;20.02;99.14;99710.05;1628941;87;25710;-72
2022/08/15 00:59:58;;;;;;;30.52;23.20;;;;;;;20.01;99.08;99709.88;1633792;87;29508;-71
2022/08/15 01:02:32;;;;;;;27.67;23.67;;;;;;;19.98;98.88;99707.90;1633893;87;25625;-71
2022/08/15 01:05:02;;;;;;;27.82;23.02;;;;;;;19.97;98.94;99708.46;1633880;87;25484;-71
2022/08/15 01:07:29;;;;;;;28.70;24.55;;;;;;;19.95;99.09;99704.76;1633920;87;26350;-71
2022/08/15 01:09:56;;;;;;;31.50;23.90;;;;;;;19.93;98.93;99693.36;1633834;87;25486;-71
2022/08/15 01:12:26;;;;;;;30.60;23.80;;;;;;;19.90;98.97;99688.67;1633800;87;28143;-71
2022/08/15 01:14:58;;;;;;;25.40;20.62;;;;;;;19.87;99.00;99689.44;1633689;87;25648;-71
2022/08/15 01:17:28;;;;;;;31.77;24.70;;;;;;;19.87;98.99;99684.51;1633887;87;25529;-71
2022/08/15 01:20:09;;;;;;;30.57;23.52;;;;;;;19.85;98.81;99686.86;1633812;87;26490;-71
2022/08/15 01:22:57;;;;;;;32.88;23.07;;;;;;;19.83;98.85;99687.84;1633943;87;25435;-71
2022/08/15 01:25:38;;;;;;;30.17;22.07;;;;;;;19.81;98.85;99681.95;1633896;87;27589;-71
2022/08/15 01:28:10;;;;;;;33.20;22.37;;;;;;;19.77;98.91;99683.32;1633717;87;25722;-71
2022/08/15 01:30:51;;;;;;;29.15;23.18;;;;;;;19.75;98.99;99683.70;1633916;87;25250;-71
2022/08/15 01:33:19;;;;;;;30.30;23.22;;;;;;;19.74;99.25;99684.06;1632794;87;25579;-69
2022/08/15 01:35:48;;;;;;;30.23;23.18;;;;;;;19.71;99.17;99688.34;1633879;87;25466;-70
2022/08/15 01:38:23;;;;;;;27.20;22.73;;;;;;;19.69;99.02;99685.80;1633992;87;27893;-70
2022/08/15 01:41:00;;;;;;;26.65;21.87;;;;;;;19.67;99.07;99690.89;1633823;87;25769;-70
2022/08/15 01:43:31;;;;;;;28.47;23.15;;;;;;;19.66;99.30;99694.20;1633950;87;25418;-71
2022/08/15 01:46:03;;;;;;;28.85;22.32;;;;;;;19.63;99.29;99700.48;1633847;87;25629;-70
2022/08/15 01:48:41;;;;;;;33.33;23.27;;;;;;;19.61;99.47;99686.34;1632742;87;25649;-71
2022/08/15 01:51:10;;;;;;;28.67;21.73;;;;;;;19.60;99.54;99690.27;1632301;87;29478;-71
2022/08/15 01:53:48;;;;;;;29.75;23.57;;;;;;;19.59;99.71;99692.80;1631260;88;25621;-71
2022/08/15 01:56:32;;;;;;;33.25;24.43;;;;;;;19.58;99.90;99692.59;1631259;88;25426;-71
2022/08/15 01:59:01;;;;;;;29.50;23.98;;;;;;;19.57;99.99;99696.52;1631321;88;26209;-70
2022/08/15 02:01:53;;;;;;;28.52;23.98;;;;;;;19.56;99.91;99694.94;1631558;87;25466;-71
2022/08/15 02:04:28;;;;;;;30.70;23.57;;;;;;;19.55;99.92;99695.53;1631282;88;27845;-70
2022/08/15 02:06:53;;;;;;;30.97;23.62;;;;;;;19.52;99.98;99682.58;1631202;87;25600;-70
2022/08/15 02:09:20;;;;;;;27.85;22.67;;;;;;;19.51;99.87;99682.96;1631326;88;25571;-71
2022/08/15 02:11:51;;;;;;;30.27;23.70;;;;;;;19.50;99.92;99684.16;1631228;88;26319;-71
2022/08/15 02:14:20;;;;;;;33.48;23.38;;;;;;;19.48;99.65;99679.61;1631249;88;25726;-70
2022/08/15 02:16:47;;;;;;;;;;;;;;;19.44;99.71;99680.97;1633765;88;27428;-71
2022/08/15 02:19:15;;;;;;;28.10;22.90;;;;;;;19.43;99.92;99679.41;1631221;87;25695;-71
2022/08/15 02:21:46;;;;;;;34.05;24.12;;;;;;;19.38;99.71;99673.70;1631227;88;25623;-70
2022/08/15 02:24:23;;;;;;;32.15;24.37;;;;;;;19.37;99.90;99675.45;1631165;88;25644;-70
2022/08/15 02:26:53;;;;;;;34.20;25.08;;;;;;;19.36;100.00;99673.30;1631270;88;25433;-71
2022/08/15 02:29:23;;;;;;;39.08;23.80;;;;;;;19.33;99.94;99666.44;1631214;88;27397;-70
2022/08/15 02:31:51;;;;;;;31.93;25.02;;;;;;;19.33;100.00;99670.55;1631160;88;25583;-71
2022/08/15 02:34:19;;;;;;;28.73;22.27;;;;;;;19.31;100.00;99675.03;1631193;88;25567;-71
2022/08/15 02:36:46;;;;;;;28.67;22.60;;;;;;;19.30;100.00;99677.56;1631154;88;25667;-71
2022/08/15 02:39:12;;;;;;;31.87;21.90;;;;;;;19.30;100.00;99682.27;1631229;88;25469;-70
2022/08/15 02:41:43;;;;;;;28.85;23.07;;;;;;;19.26;100.00;99665.80;1631198;88;27460;-70
2022/08/15 02:44:11;;;;;;;32.03;25.60;;;;;;;19.26;100.00;99664.44;1631086;88;25663;-71
2022/08/15 02:46:39;;;;;;;32.73;23.52;;;;;;;19.23;100.00;99659.71;1631192;88;25235;-71
2022/08/15 02:49:10;;;;;;;31.75;23.22;;;;;;;19.22;100.00;99658.13;1602763;88;25613;-71
2022/08/15 02:51:35;;;;;;;33.55;24.47;;;;;;;19.23;100.00;99656.38;1618891;88;25583;-71
2022/08/15 02:54:01;;;;;;;31.57;23.70;;;;;;;19.22;100.00;99656.76;1618734;88;27327;-71
2022/08/15 02:56:28;;;;;;;29.95;23.45;;;;;;;19.20;100.00;99653.62;1618690;88;25710;-71
2022/08/15 02:58:55;;;;;;;28.15;23.22;;;;;;;19.19;100.00;99659.69;1618684;88;25670;-71
2022/08/15 03:01:23;;;;;;;31.37;24.85;;;;;;;19.19;100.00;99663.03;1618624;88;26194;-71
2022/08/15 03:03:53;;;;;;;31.02;23.27;;;;;;;19.17;100.00;99664.78;1618703;88;25599;-71
2022/08/15 03:06:24;;;;;;;26.42;23.35;;;;;;;19.15;100.00;99664.95;1618674;88;27595;-71
2022/08/15 03:08:52;;;;;;;31.73;23.45;;;;;;;19.12;100.00;99663.77;1618674;88;25665;-71
2022/08/15 03:11:20;;;;;;;34.10;24.33;;;;;;;19.12;100.00;99665.14;1618932;88;25470;-71
2022/08/15 03:13:50;;;;;;;25.80;22.87;;;;;;;19.11;100.00;99663.55;1618604;88;25659;-70
2022/08/15 03:16:17;;;;;;;30.37;22.00;;;;;;;19.10;100.00;99655.71;1618581;87;25639;-70
2022/08/15 03:18:43;;;;;;;34.45;23.92;;;;;;;19.09;100.00;99657.67;1618667;88;27522;-71
2022/08/15 03:21:14;;;;;;;30.02;24.27;;;;;;;19.09;100.00;99656.30;1618597;88;25731;-70
2022/08/15 03:23:48;;;;;;;26.60;21.55;;;;;;;19.09;100.00;99656.90;1618705;88;25417;-70
2022/08/15 03:26:11;;;;;;;30.15;23.27;;;;;;;19.08;100.00;99668.42;1618924;88;25646;-70
2022/08/15 03:28:38;;;;;;;28.10;23.45;;;;;;;19.06;100.00;99667.25;1618688;88;25622;-70
2022/08/15 03:31:06;;;;;;;30.92;23.27;;;;;;;19.06;100.00;99672.73;1618675;88;27347;-70
2022/08/15 03:33:35;;;;;;;27.80;22.77;;;;;;;19.02;100.00;99672.70;1602217;88;25889;-70
2022/08/15 03:36:03;;;;;;;30.62;22.55;;;;;;;18.99;100.00;99671.50;1602429;88;25677;-70
2022/08/15 03:38:29;;;;;;;30.00;23.32;;;;;;;18.99;100.00;99670.72;1618621;88;25706;-70
2022/08/15 03:40:56;;;;;;;30.60;24.60;;;;;;;18.99;100.00;99670.12;1618703;88;25433;-70
2022/08/15 03:43:27;;;;;;;28.77;24.18;;;;;;;18.99;100.00;99670.12;1602054;88;27352;-70
2022/08/15 03:45:58;;;;;;;31.90;24.20;;;;;;;19.00;100.00;99669.53;1618584;88;25681;-70
2022/08/15 03:48:29;;;;;;;32.35;24.40;;;;;;;18.99;100.00;99668.76;1620190;87;25723;-70
2022/08/15 03:50:59;;;;;;;30.12;23.22;;;;;;;19.01;100.00;99664.27;1633349;87;26316;-70
2022/08/15 03:53:30;;;;;;;35.52;23.75;;;;;;;19.01;100.00;99669.75;1633407;87;25462;-70
2022/08/15 03:55:59;;;;;;;29.82;23.27;;;;;;;19.03;100.00;99660.56;1633391;87;26882;-70
2022/08/15 03:58:26;;;;;;;;;;;;;;;19.02;100.00;99653.52;1635725;87;25753;-71
2022/08/15 04:00:53;;;;;;;32.53;24.00;;;;;;;19.03;100.00;99654.52;1633388;87;25597;-70
2022/08/15 04:03:23;;;;;;;34.58;23.73;;;;;;;19.05;100.00;99641.77;1633441;87;25643;-71
2022/08/15 04:05:54;;;;;;;28.70;24.05;;;;;;;19.07;100.00;99637.28;1633414;87;25434;-71
2022/08/15 04:08:23;;;;;;;27.37;23.12;;;;;;;19.08;100.00;99633.39;1633419;87;27421;-71
2022/08/15 04:10:51;;;;;;;31.07;24.92;;;;;;;19.11;100.00;99631.26;1633390;87;25796;-71
2022/08/15 04:13:24;;;;;;;31.12;23.98;;;;;;;19.11;100.00;99629.30;1633360;87;25500;-71
2022/08/15 04:15:50;;;;;;;31.00;22.67;;;;;;;19.15;100.00;99627.94;1633185;87;26546;-71
2022/08/15 04:18:16;;;;;;;33.40;25.68;;;;;;;19.16;100.00;99630.89;1633390;87;25465;-71
2022/08/15 04:20:43;;;;;;;30.97;24.35;;;;;;;19.19;100.00;99624.65;1633349;87;27352;-71
2022/08/15 04:23:09;;;;;;;30.65;23.27;;;;;;;19.21;100.00;99627.79;1633290;87;25779;-71
2022/08/15 04:25:40;;;;;;;26.45;22.40;;;;;;;19.25;100.00;99626.44;1633331;87;25445;-71
2022/08/15 04:28:09;;;;;;;29.32;24.35;;;;;;;19.27;100.00;99622.13;1633353;87;25650;-71
2022/08/15 04:30:38;;;;;;;;;;;;;;;19.32;100.00;99631.95;1635794;87;25417;-71
2022/08/15 04:33:13;;;;;;;27.67;23.35;;;;;;;19.34;100.00;99635.89;1606741;89;27437;-71
2022/08/15 04:35:44;;;;;;;27.82;23.27;;;;;;;19.35;100.00;99638.04;1606528;89;25656;-71
2022/08/15 04:38:11;;;;;;;33.95;24.12;;;;;;;19.38;100.00;99635.91;1606640;89;25444;-71
2022/08/15 04:40:38;;;;;;;27.90;23.95;;;;;;;19.40;100.00;99637.67;1606560;89;25639;-71
2022/08/15 04:43:05;;;;;;;28.85;23.15;;;;;;;19.40;100.00;99637.08;1606634;89;25670;-71
2022/08/15 04:45:34;;;;;;;29.52;22.75;;;;;;;19.42;100.00;99639.44;1606607;89;27327;-71
2022/08/15 04:48:02;;;;;;;27.13;23.70;;;;;;;19.45;100.00;99641.41;1606656;89;25453;-71
2022/08/15 04:50:32;;;;;;;40.03;29.12;;;;;;;19.48;100.00;99639.28;1599269;89;25235;-71
2022/08/15 04:52:59;;;;;;;61.90;40.55;;;;;;;19.50;100.00;99644.38;1597700;89;25642;-71
2022/08/15 04:55:27;;;;;;;33.50;26.10;;;;;;;19.54;100.00;99641.06;1597756;89;25537;-70
2022/08/15 04:57:56;;;;;;;32.15;25.57;;;;;;;19.57;100.00;99644.41;1597712;89;28067;-71
2022/08/15 05:00:27;;;;;;;30.60;24.67;;;;;;;19.61;100.00;99645.20;1597788;89;25758;-71
2022/08/15 05:03:10;;;;;;;29.05;24.37;;;;;;;19.67;100.00;99647.00;1597856;89;25620;-71
2022/08/15 05:05:41;;;;;;;30.25;25.23;;;;;;;19.69;100.00;99642.69;1597737;89;25722;-71
2022/08/15 05:08:12;;;;;;;36.23;26.57;;;;;;;19.74;100.00;99651.94;1597751;89;25474;-71
2022/08/15 05:10:39;;;;;;;39.15;26.15;;;;;;;19.80;100.00;99651.56;1597740;89;28007;-71
2022/08/15 05:13:16;;;;;;;31.85;25.08;;;;;;;19.84;100.00;99649.64;1597653;89;25619;-71
2022/08/15 05:15:44;;;;;;;31.90;24.75;;;;;;;19.88;100.00;99658.66;1571038;89;25675;-71
2022/08/15 05:18:12;;;;;;;29.00;24.27;;;;;;;19.93;100.00;99661.80;1597767;89;25680;-72
2022/08/15 05:20:41;;;;;;;34.23;25.88;;;;;;;19.99;100.00;99669.66;1597781;89;25668;-70
2022/08/15 05:23:13;;;;;;;34.92;25.88;;;;;;;20.04;100.00;99659.67;1597871;89;27436;-70
2022/08/15 05:25:44;;;;;;;34.05;24.98;;;;;;;20.05;100.00;99655.16;1597718;89;25687;-71
2022/08/15 05:28:12;;;;;;;33.88;26.42;;;;;;;20.06;100.00;99656.75;1597745;89;25622;-72
2022/08/15 05:30:40;;;;;;;31.87;26.40;;;;;;;20.10;100.00;99652.63;1597791;89;26339;-71
2022/08/15 05:33:11;;;;;;;32.30;25.05;;;;;;;20.12;100.00;99650.28;1597775;88;25638;-71
2022/08/15 05:35:45;;;;;;;32.53;25.00;;;;;;;20.14;100.00;99659.71;1596586;89;27335;-72
2022/08/15 05:38:20;;;;;;;34.00;25.35;;;;;;;20.18;100.00;99659.71;1596943;89;25464;-71
2022/08/15 05:40:55;;;;;;;30.85;25.40;;;;;;;20.17;100.00;99656.76;1597722;89;25508;-71
2022/08/15 05:43:27;;;;;;;42.48;26.85;;;;;;;20.20;100.00;99662.07;1597113;89;26321;-71
2022/08/15 05:46:19;;;;;;;34.08;25.70;;;;;;;20.27;100.00;99671.69;1595239;89;25638;-71
2022/08/15 05:48:51;;;;;;;34.90;26.12;;;;;;;20.34;100.00;99680.70;1596965;89;27900;-71
2022/08/15 05:51:32;;;;;;;35.28;26.40;;;;;;;20.44;100.00;99675.64;1596988;89;25794;-71
2022/08/15 05:54:25;;;;;;;27.80;24.57;;;;;;;20.58;100.00;99677.60;1597711;89;25598;-73
2022/08/15 05:57:05;;;;;;;31.35;26.57;;;;;;;20.77;100.00;99675.89;1596992;89;25618;-71
2022/08/15 05:59:37;;;;;;;31.42;26.48;;;;;;;20.94;100.00;99683.12;1597465;89;25345;-71
2022/08/15 06:02:21;;;;;;;35.95;26.48;;;;;;;20.99;100.00;99695.09;1597537;89;27571;-71
2022/08/15 06:05:11;;;;;;;35.80;26.65;;;;;;;21.09;100.00;99692.92;1596045;89;25591;-71
2022/08/15 06:07:41;;;;;;;34.83;26.17;;;;;;;21.18;100.00;99696.63;1585988;89;25280;-72
2022/08/15 06:10:33;;;;;;;37.83;26.50;;;;;;;21.29;100.00;99698.01;1597663;89;25626;-72
2022/08/15 06:13:08;;;;;;;32.17;25.50;;;;;;;21.31;100.00;99699.77;1597810;89;25624;-72
2022/08/15 06:15:58;;;;;;;33.80;26.35;;;;;;;21.27;100.00;99701.92;1593120;89;27391;-71
2022/08/15 06:18:29;;;;;;;32.78;26.17;;;;;;;21.27;100.00;99703.30;1589288;89;25509;-70
2022/08/15 06:21:09;;;;;;;28.05;24.75;;;;;;;21.30;100.00;99704.48;1597793;89;25654;-71
2022/08/15 06:23:50;;;;;;;35.85;24.67;;;;;;;21.30;100.00;99710.56;1585082;89;25698;-72
2022/08/15 06:26:44;;;;;;;28.25;24.95;;;;;;;21.29;100.00;99705.66;1598080;89;25491;-71
2022/08/15 06:29:19;;;;;;;28.62;24.55;;;;;;;21.33;100.00;99711.15;1598136;89;28002;-71
2022/08/15 06:31:53;;;;;;;26.15;23.32;;;;;;;21.41;100.00;99711.33;1597933;89;25301;-72
2022/08/15 06:34:40;;;;;;;32.63;24.00;;;;;;;21.45;100.00;99714.84;1597814;89;25621;-71
2022/08/15 06:37:21;;;;;;;31.15;25.00;;;;;;;21.48;100.00;99712.72;1597859;89;26315;-72
2022/08/15 06:40:11;;;;;;;27.62;24.72;;;;;;;21.54;100.00;99711.14;1597907;89;25272;-70
2022/08/15 06:42:42;;;;;;;29.00;25.17;;;;;;;21.59;100.00;99710.73;1597017;89;28000;-71
2022/08/15 06:45:31;;;;;;;27.27;24.32;;;;;;;21.68;100.00;99702.64;1570807;89;25537;-72
2022/08/15 06:48:10;;;;;;;;;;;;;;;21.75;100.00;99695.13;1599694;89;25606;-72
2022/08/15 06:50:42;;;;;;;28.47;24.95;;;;;;;21.77;100.00;99690.61;1590114;89;26645;-72
2022/08/15 06:53:28;;;;;;;27.62;24.10;;;;;;;21.79;100.00;99689.03;1592303;90;25638;-71
2022/08/15 06:56:25;;;;;;;31.45;25.30;;;;;;;21.86;100.00;99688.80;1592178;90;28118;-72
2022/08/15 06:59:18;;;;;;;29.07;24.60;;;;;;;21.97;100.00;99690.91;1592298;90;25288;-71
2022/08/15 07:01:58;;;;;;;34.20;25.77;;;;;;;22.06;100.00;99690.47;1592220;90;25412;-71
2022/08/15 07:04:56;;;;;;;29.02;24.87;;;;;;;22.23;100.00;99685.45;1564626;91;25678;-72
2022/08/15 07:07:49;;;;;;;27.22;24.40;;;;;;;22.48;100.00;99684.54;1563950;91;25667;-73
2022/08/15 07:10:42;;;;;;;25.62;23.02;;;;;;;22.62;100.00;99684.42;1564871;91;27521;-72
2022/08/15 07:13:20;;;;;;;24.75;21.17;;;;;;;22.62;100.00;99694.67;1564007;91;25864;-71
2022/08/15 07:15:56;;;;;;;26.73;23.87;;;;;;;22.58;100.00;99693.32;1564268;91;25282;-72
2022/08/15 07:18:37;;;;;;;26.95;23.07;;;;;;;22.60;100.00;99699.20;1564552;91;26172;-72
2022/08/15 07:21:08;;;;;;;25.65;23.00;;;;;;;22.66;100.00;99701.73;1564716;91;25757;-71
2022/08/15 07:23:38;;;;;;;29.37;23.10;;;;;;;22.83;100.00;99700.02;1564607;91;27332;-72
2022/08/15 07:26:10;;;;;;;26.30;23.60;;;;;;;22.95;100.00;99706.98;1561405;91;25768;-72
2022/08/15 07:28:41;;;;;;;24.67;21.82;;;;;;;23.02;100.00;99702.80;1564427;91;25647;-72
2022/08/15 07:31:19;;;;;;;25.72;23.02;;;;;;;23.07;100.00;99702.39;1564528;91;25688;-71
2022/08/15 07:33:51;;;;;;;23.98;20.43;;;;;;;23.10;100.00;99710.42;1564402;91;25500;-71
2022/08/15 07:36:29;;;;;;;27.80;22.62;;;;;;;23.09;100.00;99711.63;1564461;91;27335;-72
2022/08/15 07:38:56;;;;;;;24.05;21.57;;;;;;;23.09;100.00;99707.50;1564374;91;25696;-72
2022/08/15 07:41:33;;;;;;;25.27;22.62;;;;;;;23.12;100.00;99710.80;1576235;90;25802;-72
2022/08/15 07:44:20;;;;;;;24.12;21.62;;;;;;;23.15;100.00;99703.69;1591951;90;25708;-71
2022/08/15 07:47:00;;;;;;;21.82;19.70;;;;;;;23.10;100.00;99708.47;1592254;90;25456;-72
2022/08/15 07:49:32;;;;;;;23.52;19.42;;;;;;;23.06;98.11;99707.70;1592485;88;27353;-72
2022/08/15 07:52:09;;;;;;;21.20;18.98;;;;;;;22.99;97.09;99705.59;1564771;90;25769;-72
2022/08/15 07:54:55;;;;;;;23.73;21.33;;;;;;;22.94;97.55;99700.69;1591058;90;25618;-72
2022/08/15 07:57:35;;;;;;;24.55;21.90;;;;;;;22.93;98.67;99706.61;1591073;90;25557;-72
2022/08/15 08:00:25;;;;;;;24.20;21.65;;;;;;;22.95;99.24;99701.46;1591199;90;25511;-72
2022/08/15 08:03:03;;;;;;;25.85;22.37;;;;;;;22.96;99.39;99704.42;1591126;90;27356;-71
2022/08/15 08:05:47;;;;;;;26.10;22.65;;;;;;;23.03;100.00;99702.20;1590671;90;25830;-72
2022/08/15 08:08:14;;;;;;;25.43;22.67;;;;;;;23.12;100.00;99709.42;1590623;90;25608;-71
2022/08/15 08:10:50;;;;;;;29.82;26.60;;;;;;;23.20;100.00;99706.00;1564846;90;25681;-72
2022/08/15 08:14:03;;;;;;;48.87;34.65;;;;;;;23.27;100.00;99700.41;1591255;90;25500;-72
2022/08/15 08:16:54;;;;;;;26.70;21.23;;;;;;;23.36;100.00;99702.68;1591407;90;27344;-72
2022/08/15 08:19:53;;;;;;;24.20;21.68;;;;;;;23.42;100.00;99701.83;1585413;90;25514;-72
2022/08/15 08:22:34;;;;;;;22.55;20.10;;;;;;;23.48;100.00;99704.33;1591198;90;25628;-72
2022/08/15 08:25:21;;;;;;;26.40;23.60;;;;;;;23.58;99.50;99705.41;1591501;90;25618;-72
2022/08/15 08:28:08;;;;;;;23.90;19.45;;;;;;;23.71;100.00;99705.64;1568853;90;25538;-71
2022/08/15 08:30:53;;;;;;;21.90;19.65;;;;;;;23.78;99.71;99696.48;1590590;90;27397;-72
2022/08/15 08:33:48;;;;;;;21.95;19.62;;;;;;;23.82;98.42;99700.01;1591159;90;25662;-73
2022/08/15 08:36:29;;;;;;;22.98;20.23;;;;;;;23.86;97.05;99703.52;1591345;90;25688;-73
2022/08/15 08:39:04;;;;;;;28.45;22.70;;;;;;;23.86;95.97;99700.77;1590836;90;26122;-71
2022/08/15 08:42:05;;;;;;;24.15;20.37;;;;;;;23.90;95.79;99709.77;1588246;90;25602;-72
2022/08/15 08:44:58;;;;;;;23.32;20.92;;;;;;;23.94;95.84;99711.10;1590609;90;27360;-73
2022/08/15 08:48:05;;;;;;;26.50;19.15;;;;;;;23.95;95.96;99705.17;1590505;90;25460;-72
2022/08/15 08:50:55;;;;;;;19.70;17.77;;;;;;;23.98;95.40;99707.11;1590958;89;25508;-73
2022/08/15 08:54:01;;;;;;;26.77;19.55;;;;;;;24.02;94.78;99704.30;1591967;90;25732;-72
2022/08/15 08:56:40;;;;;;;21.48;19.20;;;;;;;24.05;94.93;99700.70;1592000;90;25579;-72
2022/08/15 08:59:14;;;;;;;28.42;20.45;;;;;;;24.11;95.28;99703.78;1591382;90;27436;-72
2022/08/15 09:01:41;;;;;;;22.40;19.87;;;;;;;24.15;94.96;99697.63;1591969;90;25589;-72
2022/08/15 09:04:15;;;;;;;22.98;18.77;;;;;;;24.26;96.21;99698.84;1591697;89;25658;-71
2022/08/15 09:06:46;;;;;;;20.72;17.98;;;;;;;24.37;95.01;99698.87;1591932;90;25616;-71
2022/08/15 09:09:20;;;;;;;18.98;16.93;;;;;;;24.53;95.36;99690.53;1591972;90;25706;-72
2022/08/15 09:11:52;;;;;;;20.52;18.23;;;;;;;24.77;97.07;99692.16;1591983;90;27553;-72
2022/08/15 09:14:36;;;;;;;24.82;19.42;;;;;;;25.11;98.18;99698.07;1581843;90;25880;-72
2022/08/15 09:17:10;;;;;;;22.32;17.23;;;;;;;25.39;95.27;99698.00;1592017;90;25533;-72
2022/08/15 09:19:54;;;;;;;21.97;17.25;;;;;;;25.61;92.60;99699.16;1591872;90;25694;-72
2022/08/15 09:22:20;;;;;;;21.02;17.17;;;;;;;25.82;92.08;99693.00;1592102;90;25529;-72
2022/08/15 09:24:47;;;;;;;19.42;16.00;;;;;;;26.11;92.84;99697.34;1592065;90;27359;-71
2022/08/15 09:27:40;;;;;;;19.73;15.35;;;;;;;26.53;91.43;99696.77;1591983;90;25485;-72
2022/08/15 09:30:10;;;;;;;17.35;15.38;;;;;;;26.87;89.56;99689.45;1591798;90;25265;-72
2022/08/15 09:33:09;;;;;;;18.48;15.40;;;;;;;27.33;90.46;99684.69;1591925;90;25821;-71
2022/08/15 09:35:43;;;;;;;19.65;14.70;;;;;;;27.83;89.46;99686.64;1592119;90;25533;-70
2022/08/15 09:38:41;;;;;;;17.80;14.55;;;;;;;28.28;83.67;99684.32;1592029;90;27999;-70
2022/08/15 09:41:39;;;;;;;15.15;13.43;;;;;;;28.58;82.20;99679.41;1591966;90;25462;-71
2022/08/15 09:44:19;;;;;;;17.60;12.70;;;;;;;28.98;80.90;99685.84;1592091;90;25605;-70
2022/08/15 09:47:09;;;;;;;15.80;13.10;;;;;;;29.73;77.74;99688.55;1591804;90;26192;-71
2022/08/15 09:50:20;;;;;;;15.28;12.37;;;;;;;29.73;77.74;99688.55;1592041;90;25625;-71
2022/08/15 09:53:24;;;;;;;13.70;12.43;;;;;;;29.78;74.62;99674.86;1591940;90;27890;-72
2022/08/15 09:55:52;;;;;;;17.30;11.83;;;;;;;29.84;71.88;99673.64;1591744;90;25696;-72
2022/08/15 09:58:31;;;;;;;16.02;12.20;;;;;;;29.89;70.86;99670.25;1591965;90;25660;-71
2022/08/15 10:01:23;;;;;;;14.83;11.73;;;;;;;29.95;71.72;99667.64;1591823;90;25707;-72
2022/08/15 10:03:58;;;;;;;17.27;11.80;;;;;;;30.19;70.81;99670.70;1588359;90;25898;-71
2022/08/15 10:06:55;;;;;;;18.82;12.05;;;;;;;30.33;71.14;99672.91;1592054;90;27355;-71
2022/08/15 10:09:33;;;;;;;14.03;11.90;;;;;;;30.83;71.33;99666.52;1591947;90;25580;-73
2022/08/15 10:12:11;;;;;;;14.37;11.00;;;;;;;31.28;70.20;99659.42;1589690;90;25825;-71
2022/08/15 10:14:49;;;;;;;16.15;12.45;;;;;;;31.59;66.70;99652.24;1591916;90;25734;-70
2022/08/15 10:17:40;;;;;;;12.85;11.53;;;;;;;31.74;65.93;99657.95;1592031;90;25649;-71
2022/08/15 10:20:22;;;;;;;14.30;12.00;;;;;;;31.89;65.26;99660.06;1591900;90;27359;-71
2022/08/15 10:23:04;;;;;;;12.90;11.60;;;;;;;31.93;64.29;99657.89;1591859;90;26166;-72
2022/08/15 10:25:38;;;;;;;16.87;11.10;;;;;;;32.13;64.32;99657.34;1590121;90;25550;-73
2022/08/15 10:28:16;;;;;;;12.73;11.48;;;;;;;32.59;63.34;99662.71;1591888;90;25619;-70
2022/08/15 10:30:55;;;;;;;16.80;11.33;;;;;;;32.82;61.47;99661.16;1591945;90;25619;-72
2022/08/15 10:33:42;;;;;;;12.80;11.40;;;;;;;32.79;59.89;99658.55;1586911;90;28301;-71
2022/08/15 10:36:26;;;;;;;15.33;11.33;;;;;;;32.81;57.96;99664.44;1592061;90;25452;-72
2022/08/15 10:39:18;;;;;;;16.17;11.30;;;;;;;32.53;56.68;99662.57;1563570;90;25714;-72
2022/08/15 10:42:28;;;;;;;14.53;11.68;;;;;;;32.26;58.38;99662.73;1592207;90;25677;-72
2022/08/15 10:45:27;;;;;;;14.50;11.25;;;;;;;32.44;58.08;99665.44;1592240;90;25773;-72
2022/08/15 10:48:28;;;;;;;16.00;11.88;;;;;;;32.71;58.18;99659.52;1592595;90;27305;-72
2022/08/15 10:51:25;;;;;;;12.50;11.30;;;;;;;32.80;55.87;99657.31;1589568;88;25259;-72
2022/08/15 10:54:34;;;;;;;26.07;11.53;;;;;;;32.67;56.19;99647.74;1578306;91;25344;-73
2022/08/15 10:57:05;;;;;;;13.43;11.25;;;;;;;32.50;55.38;99659.95;1536634;93;26284;-73
2022/08/15 10:59:39;;;;;;;11.95;10.78;;;;;;;32.05;54.71;99656.14;1536823;93;25690;-73
2022/08/15 11:02:23;;;;;;;16.30;11.70;;;;;;;31.50;54.62;99663.45;1537012;93;27349;-73
2022/08/15 11:04:49;;;;;;;13.83;12.00;;;;;;;31.01;55.47;99662.38;1526532;94;25635;-74
2022/08/15 11:07:30;;;;;;;16.45;11.63;;;;;;;30.69;56.44;99667.91;1540760;93;25564;-73
2022/08/15 11:10:00;;;;;;;20.10;12.90;;;;;;;30.46;57.48;99660.88;1540861;93;25745;-73
2022/08/15 11:12:31;;;;;;;16.52;12.30;;;;;;;30.25;57.62;99663.27;1540969;93;25570;-73
2022/08/15 11:15:09;;;;;;;17.32;12.55;;;;;;;30.15;58.65;99661.69;1541039;93;27478;-72
2022/08/15 11:17:35;;;;;;;14.50;11.73;;;;;;;30.00;58.12;99669.83;1523667;94;25746;-73
2022/08/15 11:20:15;;;;;;;16.20;12.30;;;;;;;29.80;58.52;99666.81;1549688;92;25288;-73
2022/08/15 11:22:55;;;;;;;16.52;13.28;;;;;;;29.64;58.33;99662.81;1533270;93;25640;-73
2022/08/15 11:25:28;;;;;;;14.98;12.82;;;;;;;29.57;59.65;99663.85;1533140;93;25308;-73
2022/08/15 11:28:21;;;;;;;13.10;11.68;;;;;;;29.57;60.19;99664.48;1533182;93;27359;-73
2022/08/15 11:30:59;;;;;;;14.30;11.53;;;;;;;29.58;59.51;99666.81;1550388;90;25728;-73
2022/08/15 11:33:43;;;;;;;16.17;12.43;;;;;;;29.68;60.33;99667.65;1626151;88;25460;-73
2022/08/15 11:36:20;;;;;;;16.10;12.88;;;;;;;29.75;59.39;99661.03;1626867;88;25630;-73
2022/08/15 11:38:55;;;;;;;17.12;12.23;;;;;;;29.67;59.03;99664.69;1627079;88;25515;-74
2022/08/15 11:41:27;;;;;;;13.30;11.93;;;;;;;29.69;59.73;99672.59;1629047;88;27345;-73
2022/08/15 11:43:58;;;;;;;16.37;12.55;;;;;;;29.74;60.45;99660.86;1623848;88;25473;-73
2022/08/15 11:46:26;;;;;;;14.05;11.80;;;;;;;30.02;61.97;99663.80;1626574;88;25507;-74
2022/08/15 11:48:59;;;;;;;;;;;;;;;30.51;61.62;99664.45;1628911;88;25785;-73
2022/08/15 11:51:36;;;;;;;12.90;11.55;;;;;;;30.89;60.61;99654.28;1625778;88;25417;-74
2022/08/15 11:54:14;;;;;;;14.03;11.63;;;;;;;31.20;59.42;99656.16;1626567;88;27410;-73
2022/08/15 11:56:59;;;;;;;13.60;12.03;;;;;;;31.47;58.72;99648.36;1626184;88;25806;-73